Time;durP1;ratioP1;P1;durP2;ratioP2;P2;SDS_P1;SDS_P2;PMS_P1;PMS_P2;Temp;Humidity;BMP_temperature;BMP_pressure;BME280_temperature;BME280_humidity;BME280_pressure;Samples;Min_cycle;Max_cycle;Signal;HPM_P1;HPM_P2
2023/03/09 00:02:18;;;;;;;10.00;7.10;;;;;;;;;;5017543;28;20259;-85
2023/03/09 00:04:46;;;;;;;12.10;9.13;;;;;;;;;;5017403;28;20238;-86
2023/03/09 00:07:15;;;;;;;10.47;7.67;;;;;;;;;;5017687;28;20205;-86
2023/03/09 00:09:43;;;;;;;9.40;7.60;;;;;;;;;;5017463;28;20212;-86
2023/03/09 00:12:13;;;;;;;8.77;6.50;;;;;;;;;;5017637;28;20266;-86
2023/03/09 00:14:41;;;;;;;9.83;6.80;;;;;;;;;;5017385;28;20202;-85
2023/03/09 00:17:10;;;;;;;8.80;6.40;;;;;;;;;;5016952;28;20209;-85
2023/03/09 00:19:38;;;;;;;11.97;7.90;;;;;;;;;;5016941;28;20229;-85
2023/03/09 00:22:06;;;;;;;9.50;6.53;;;;;;;;;;5016717;28;20221;-86
2023/03/09 00:24:35;;;;;;;12.83;8.60;;;;;;;;;;5017509;28;20294;-86
2023/03/09 00:27:04;;;;;;;8.67;7.77;;;;;;;;;;5017149;28;20307;-86
2023/03/09 00:29:34;;;;;;;9.80;7.10;;;;;;;;;;5017315;28;20206;-86
2023/03/09 00:32:02;;;;;;;9.00;6.87;;;;;;;;;;5016702;28;20257;-86
2023/03/09 00:34:31;;;;;;;6.27;5.20;;;;;;;;;;5017072;28;20205;-86
2023/03/09 00:36:59;;;;;;;7.77;6.20;;;;;;;;;;5017059;28;20203;-86
2023/03/09 00:39:27;;;;;;;8.50;5.77;;;;;;;;;;5017047;28;20288;-86
2023/03/09 00:41:56;;;;;;;7.87;5.90;;;;;;;;;;5017118;28;20209;-86
2023/03/09 00:44:24;;;;;;;6.83;6.03;;;;;;;;;;5016761;28;20190;-86
2023/03/09 00:46:54;;;;;;;5.67;4.00;;;;;;;;;;5017107;28;20230;-86
2023/03/09 00:49:22;;;;;;;6.97;5.57;;;;;;;;;;5017249;28;20215;-86
2023/03/09 00:51:51;;;;;;;8.20;6.97;;;;;;;;;;5017138;28;20192;-88
2023/03/09 00:54:19;;;;;;;5.23;4.57;;;;;;;;;;5017338;28;20204;-86
2023/03/09 00:56:47;;;;;;;7.43;5.93;;;;;;;;;;5017785;28;20231;-86
2023/03/09 00:59:16;;;;;;;6.40;4.60;;;;;;;;;;5017087;28;20257;-86
2023/03/09 01:01:44;;;;;;;5.80;5.20;;;;;;;;;;5017467;28;20294;-85
2023/03/09 01:04:14;;;;;;;5.30;4.40;;;;;;;;;;5017127;28;20317;-86
2023/03/09 01:06:42;;;;;;;7.80;5.87;;;;;;;;;;5017438;28;20212;-86
2023/03/09 01:09:11;;;;;;;8.33;5.13;;;;;;;;;;5016784;28;20277;-85
2023/03/09 01:11:39;;;;;;;6.43;5.67;;;;;;;;;;5017647;28;20213;-86
2023/03/09 01:14:08;;;;;;;4.87;4.37;;;;;;;;;;5016836;28;20241;-85
2023/03/09 01:16:36;;;;;;;8.90;4.80;;;;;;;;;;5016332;28;20195;-86
2023/03/09 01:19:05;;;;;;;6.93;5.17;;;;;;;;;;5016708;28;20282;-86
2023/03/09 01:21:34;;;;;;;5.13;4.63;;;;;;;;;;5016470;28;20211;-86
2023/03/09 01:24:03;;;;;;;3.20;2.73;;;;;;;;;;5016688;28;20208;-85
2023/03/09 01:26:31;;;;;;;4.50;3.50;;;;;;;;;;5016307;28;20263;-85
2023/03/09 01:29:01;;;;;;;4.13;3.77;;;;;;;;;;5016675;28;20248;-86
2023/03/09 01:31:30;;;;;;;3.07;2.77;;;;;;;;;;5015948;28;20214;-86
2023/03/09 01:33:58;;;;;;;4.50;3.13;;;;;;;;;;5016763;28;20268;-85
2023/03/09 01:36:27;;;;;;;3.67;3.37;;;;;;;;;;5016482;28;20241;-86
2023/03/09 01:38:56;;;;;;;2.53;2.30;;;;;;;;;;5016428;28;20291;-86
2023/03/09 01:41:25;;;;;;;3.17;2.87;;;;;;;;;;5016918;28;20236;-85
2023/03/09 01:43:54;;;;;;;2.50;2.30;;;;;;;;;;5016372;28;20193;-86
2023/03/09 01:46:35;;;;;;;3.73;2.53;;;;;;;;;;5016677;28;20195;-86
2023/03/09 01:49:06;;;;;;;5.30;3.97;;;;;;;;;;5017349;28;20215;-86
2023/03/09 01:51:38;;;;;;;5.63;4.47;;;;;;;;;;5016657;28;20209;-86
2023/03/09 01:54:09;;;;;;;3.90;3.30;;;;;;;;;;5016704;28;20305;-86
2023/03/09 01:56:37;;;;;;;3.07;2.70;;;;;;;;;;5016023;28;20209;-86
2023/03/09 01:59:07;;;;;;;5.17;4.67;;;;;;;;;;5015901;28;20207;-85
2023/03/09 02:01:36;;;;;;;5.37;4.00;;;;;;;;;;5015710;28;20201;-86
2023/03/09 02:04:07;;;;;;;5.23;4.03;;;;;;;;;;5015303;28;20290;-86
2023/03/09 02:06:36;;;;;;;7.20;4.43;;;;;;;;;;5015491;28;20210;-86
2023/03/09 02:09:10;;;;;;;4.80;3.97;;;;;;;;;;5015860;28;20214;-86
2023/03/09 02:11:41;;;;;;;5.47;4.43;;;;;;;;;;5015656;28;20200;-86
2023/03/09 02:14:09;;;;;;;5.43;4.40;;;;;;;;;;5015342;28;20301;-86
2023/03/09 02:16:38;;;;;;;4.53;4.13;;;;;;;;;;5015481;28;20208;-85
2023/03/09 02:19:07;;;;;;;7.50;4.03;;;;;;;;;;5015310;28;20222;-85
2023/03/09 02:21:39;;;;;;;4.33;3.93;;;;;;;;;;5015219;28;20223;-85
2023/03/09 02:24:11;;;;;;;6.20;4.60;;;;;;;;;;5015155;28;20259;-85
2023/03/09 02:26:43;;;;;;;6.07;4.57;;;;;;;;;;5014723;28;20302;-85
2023/03/09 02:29:13;;;;;;;6.87;5.23;;;;;;;;;;5014228;28;20291;-86
2023/03/09 02:31:42;;;;;;;5.47;4.43;;;;;;;;;;5014926;28;20266;-85
2023/03/09 02:34:10;;;;;;;4.37;3.53;;;;;;;;;;5014777;28;20278;-88
2023/03/09 02:36:39;;;;;;;3.70;3.27;;;;;;;;;;5015294;28;20251;-86
2023/03/09 02:39:11;;;;;;;4.27;3.43;;;;;;;;;;5014802;28;20198;-85
2023/03/09 02:41:40;;;;;;;4.50;3.77;;;;;;;;;;5014682;28;20306;-86
2023/03/09 02:44:08;;;;;;;3.73;3.43;;;;;;;;;;5015161;28;20198;-86
2023/03/09 02:46:38;;;;;;;5.80;4.47;;;;;;;;;;5015475;28;20214;-86
2023/03/09 02:49:06;;;;;;;3.50;3.23;;;;;;;;;;5014936;28;20297;-86
2023/03/09 02:51:35;;;;;;;6.23;3.53;;;;;;;;;;5014588;28;20264;-86
2023/03/09 02:54:03;;;;;;;6.73;3.33;;;;;;;;;;5014688;28;20217;-86
2023/03/09 02:56:32;;;;;;;5.87;4.13;;;;;;;;;;5014393;28;20256;-86
2023/03/09 02:59:02;;;;;;;3.67;3.27;;;;;;;;;;5014642;28;20302;-86
2023/03/09 03:01:31;;;;;;;5.23;4.20;;;;;;;;;;4997930;28;20207;-86
2023/03/09 03:04:00;;;;;;;7.70;4.67;;;;;;;;;;5014231;28;20260;-86
2023/03/09 03:06:29;;;;;;;7.77;5.73;;;;;;;;;;5014564;28;20204;-86
2023/03/09 03:08:57;;;;;;;6.90;5.63;;;;;;;;;;5014117;28;20236;-86
2023/03/09 03:11:26;;;;;;;4.20;3.80;;;;;;;;;;5014900;28;20230;-86
2023/03/09 03:13:54;;;;;;;7.10;6.33;;;;;;;;;;5015347;28;20260;-85
2023/03/09 03:16:23;;;;;;;4.60;4.20;;;;;;;;;;5015643;28;20241;-85
2023/03/09 03:18:51;;;;;;;7.63;5.43;;;;;;;;;;5015094;28;20236;-86
2023/03/09 03:21:24;;;;;;;5.77;4.67;;;;;;;;;;5014955;28;20232;-86
2023/03/09 03:23:53;;;;;;;6.13;4.53;;;;;;;;;;5014559;28;20232;-87
2023/03/09 03:26:22;;;;;;;6.27;5.47;;;;;;;;;;5013737;28;20209;-86
2023/03/09 03:28:50;;;;;;;4.43;3.77;;;;;;;;;;5013949;28;20224;-86
2023/03/09 03:31:19;;;;;;;6.03;4.77;;;;;;;;;;5013847;28;20264;-86
2023/03/09 03:33:47;;;;;;;7.90;5.63;;;;;;;;;;5013341;28;20241;-86
2023/03/09 03:36:16;;;;;;;4.53;4.13;;;;;;;;;;5013983;28;20203;-86
2023/03/09 03:38:46;;;;;;;5.27;4.77;;;;;;;;;;5013665;28;20237;-85
2023/03/09 03:41:15;;;;;;;6.37;4.50;;;;;;;;;;5013767;28;20271;-85
2023/03/09 03:43:43;;;;;;;5.33;4.03;;;;;;;;;;5014530;28;20308;-86
2023/03/09 03:46:11;;;;;;;6.43;4.70;;;;;;;;;;5014609;28;20237;-86
2023/03/09 03:48:41;;;;;;;4.40;4.07;;;;;;;;;;5014281;28;20205;-86
2023/03/09 03:51:09;;;;;;;6.63;4.27;;;;;;;;;;5014697;28;20312;-86
2023/03/09 03:53:37;;;;;;;4.67;3.57;;;;;;;;;;5014456;28;20297;-86
2023/03/09 03:56:07;;;;;;;4.40;4.10;;;;;;;;;;5014193;28;20244;-86
2023/03/09 03:58:36;;;;;;;3.77;3.50;;;;;;;;;;5014294;28;20291;-86
2023/03/09 04:01:04;;;;;;;3.77;3.17;;;;;;;;;;5014382;28;20197;-86
2023/03/09 04:03:33;;;;;;;7.43;6.77;;;;;;;;;;5014249;28;20322;-86
2023/03/09 04:06:03;;;;;;;4.00;3.73;;;;;;;;;;5013342;28;20238;-86
2023/03/09 04:08:32;;;;;;;2.10;2.00;;;;;;;;;;5013488;28;20229;-86
2023/03/09 04:11:05;;;;;;;3.00;2.70;;;;;;;;;;5013996;28;20233;-86
2023/03/09 04:13:35;;;;;;;5.60;4.60;;;;;;;;;;5013855;28;20202;-86
2023/03/09 04:16:04;;;;;;;2.87;2.67;;;;;;;;;;5014093;28;20292;-86
2023/03/09 04:18:32;;;;;;;2.73;2.53;;;;;;;;;;5013887;28;20202;-86
2023/03/09 04:21:01;;;;;;;8.43;6.17;;;;;;;;;;5017054;28;20233;-86
2023/03/09 04:23:29;;;;;;;4.70;4.20;;;;;;;;;;5017023;28;20205;-86
2023/03/09 04:25:59;;;;;;;8.90;5.53;;;;;;;;;;5017306;28;20209;-86
2023/03/09 04:28:28;;;;;;;6.43;4.90;;;;;;;;;;5016893;28;20274;-86
2023/03/09 04:30:57;;;;;;;3.80;3.60;;;;;;;;;;5017221;28;20256;-86
2023/03/09 04:33:26;;;;;;;5.37;4.03;;;;;;;;;;5017025;28;20269;-85
2023/03/09 04:35:54;;;;;;;5.83;4.80;;;;;;;;;;5016742;28;20202;-85
2023/03/09 04:38:23;;;;;;;5.07;2.93;;;;;;;;;;5017104;28;20213;-86
2023/03/09 04:40:51;;;;;;;4.60;4.13;;;;;;;;;;5016755;28;20523;-85
2023/03/09 04:43:19;;;;;;;1.97;1.83;;;;;;;;;;5016926;28;20211;-86
2023/03/09 04:45:48;;;;;;;6.03;3.93;;;;;;;;;;5016999;28;20249;-86
2023/03/09 04:48:18;;;;;;;4.30;3.90;;;;;;;;;;5017206;28;20202;-87
2023/03/09 04:50:46;;;;;;;3.53;3.27;;;;;;;;;;5017188;28;20205;-86
2023/03/09 04:53:14;;;;;;;3.63;3.33;;;;;;;;;;5017542;28;20299;-85
2023/03/09 04:55:43;;;;;;;45.60;6.50;;;;;;;;;;5017821;28;20234;-86
2023/03/09 04:58:11;;;;;;;2.57;2.37;;;;;;;;;;5018675;28;20212;-86
2023/03/09 05:00:40;;;;;;;4.50;4.10;;;;;;;;;;5018074;28;20201;-86
2023/03/09 05:03:08;;;;;;;3.37;2.97;;;;;;;;;;5018127;28;20268;-86
2023/03/09 05:05:38;;;;;;;3.13;2.43;;;;;;;;;;5017937;28;20276;-86
2023/03/09 05:08:06;;;;;;;6.40;4.50;;;;;;;;;;5017374;28;20197;-85
2023/03/09 05:10:35;;;;;;;6.37;4.10;;;;;;;;;;5018048;28;20229;-87
2023/03/09 05:13:03;;;;;;;6.27;5.47;;;;;;;;;;5016478;28;20227;-86
2023/03/09 05:15:32;;;;;;;2.80;2.63;;;;;;;;;;5016427;28;20473;-86
2023/03/09 05:18:00;;;;;;;5.20;4.13;;;;;;;;;;5016411;28;20205;-86
2023/03/09 05:20:28;;;;;;;4.30;3.93;;;;;;;;;;5016380;28;20206;-86
2023/03/09 05:22:58;;;;;;;5.07;4.00;;;;;;;;;;5016334;28;20205;-86
2023/03/09 05:25:26;;;;;;;9.67;4.70;;;;;;;;;;5016335;28;20236;-85
2023/03/09 05:27:55;;;;;;;6.47;4.63;;;;;;;;;;5015903;28;20207;-86
2023/03/09 05:30:23;;;;;;;4.33;3.50;;;;;;;;;;5015650;28;20195;-86
2023/03/09 05:32:51;;;;;;;6.57;4.77;;;;;;;;;;5014130;28;20220;-86
2023/03/09 05:35:20;;;;;;;4.87;4.37;;;;;;;;;;5015812;28;20237;-85
2023/03/09 05:37:49;;;;;;;7.37;5.50;;;;;;;;;;5016476;28;20240;-86
2023/03/09 05:40:22;;;;;;;6.27;5.30;;;;;;;;;;5015488;28;20225;-86
2023/03/09 05:42:50;;;;;;;11.03;8.83;;;;;;;;;;5015810;28;20215;-85
2023/03/09 05:45:19;;;;;;;9.37;7.93;;;;;;;;;;5016190;28;20242;-86
2023/03/09 05:47:47;;;;;;;9.93;6.67;;;;;;;;;;5016311;28;20207;-86
2023/03/09 05:50:15;;;;;;;8.43;6.23;;;;;;;;;;5015703;28;20227;-86
2023/03/09 05:52:44;;;;;;;7.23;5.43;;;;;;;;;;5016311;28;20230;-85
2023/03/09 05:55:12;;;;;;;7.03;4.57;;;;;;;;;;5015896;28;20212;-85
2023/03/09 05:57:42;;;;;;;10.47;6.57;;;;;;;;;;5015939;28;20295;-85
2023/03/09 06:00:11;;;;;;;8.10;6.70;;;;;;;;;;5015639;28;20211;-85
2023/03/09 06:02:40;;;;;;;10.70;8.13;;;;;;;;;;5015755;28;20200;-86
2023/03/09 06:05:09;;;;;;;8.90;6.07;;;;;;;;;;5015164;28;20236;-85
2023/03/09 06:07:37;;;;;;;8.23;6.30;;;;;;;;;;5015770;28;20303;-86
2023/03/09 06:10:06;;;;;;;10.33;6.67;;;;;;;;;;5015368;28;20236;-86
2023/03/09 06:12:35;;;;;;;7.67;5.13;;;;;;;;;;5015044;28;20256;-85
2023/03/09 06:15:05;;;;;;;13.73;9.93;;;;;;;;;;5015544;28;20200;-85
2023/03/09 06:17:35;;;;;;;7.77;6.37;;;;;;;;;;5015568;28;20197;-86
2023/03/09 06:20:03;;;;;;;7.10;5.63;;;;;;;;;;5014959;28;20247;-86
2023/03/09 06:22:32;;;;;;;3.00;2.73;;;;;;;;;;5015476;28;20197;-86
2023/03/09 06:25:00;;;;;;;9.27;6.63;;;;;;;;;;5015322;28;20206;-86
2023/03/09 06:27:29;;;;;;;8.73;6.40;;;;;;;;;;5015409;28;20280;-86
2023/03/09 06:29:57;;;;;;;7.00;5.57;;;;;;;;;;5015203;28;20243;-85
2023/03/09 06:32:27;;;;;;;6.77;5.47;;;;;;;;;;5014122;28;20324;-86
2023/03/09 06:34:56;;;;;;;9.40;7.13;;;;;;;;;;5014869;28;20203;-86
2023/03/09 06:37:24;;;;;;;4.70;3.97;;;;;;;;;;5014670;28;20262;-85
2023/03/09 06:39:53;;;;;;;6.37;5.77;;;;;;;;;;5015068;28;20220;-85
2023/03/09 06:42:21;;;;;;;8.43;5.97;;;;;;;;;;5015012;28;20233;-85
2023/03/09 06:44:50;;;;;;;5.07;4.67;;;;;;;;;;5014481;28;20212;-85
2023/03/09 06:47:18;;;;;;;4.90;4.43;;;;;;;;;;5014999;28;20188;-86
2023/03/09 06:49:48;;;;;;;5.00;3.63;;;;;;;;;;5014799;28;20225;-85
2023/03/09 06:52:16;;;;;;;7.27;3.50;;;;;;;;;;5014431;28;20247;-84
2023/03/09 06:54:45;;;;;;;6.47;4.67;;;;;;;;;;5014860;28;20210;-85
2023/03/09 06:57:13;;;;;;;5.03;3.37;;;;;;;;;;5014987;28;20308;-84
2023/03/09 06:59:42;;;;;;;6.73;6.07;;;;;;;;;;5014618;28;20210;-83
2023/03/09 07:02:11;;;;;;;6.43;4.63;;;;;;;;;;5015254;28;20376;-85
2023/03/09 07:04:39;;;;;;;8.77;6.80;;;;;;;;;;5016786;28;20241;-85
2023/03/09 07:07:09;;;;;;;6.50;5.90;;;;;;;;;;5016418;28;20217;-85
2023/03/09 07:09:38;;;;;;;5.90;4.80;;;;;;;;;;5016578;28;20217;-85
2023/03/09 07:12:06;;;;;;;5.10;4.57;;;;;;;;;;5016725;28;20215;-85
2023/03/09 07:14:35;;;;;;;10.17;5.70;;;;;;;;;;5015544;28;20213;-83
2023/03/09 07:17:04;;;;;;;7.43;5.70;;;;;;;;;;5014243;28;20257;-82
2023/03/09 07:19:33;;;;;;;6.47;5.83;;;;;;;;;;5014648;28;20228;-83
2023/03/09 07:22:01;;;;;;;7.87;5.97;;;;;;;;;;5014571;28;20253;-82
2023/03/09 07:24:31;;;;;;;5.67;4.90;;;;;;;;;;5013958;28;20230;-82
2023/03/09 07:27:00;;;;;;;6.37;3.60;;;;;;;;;;5014054;28;20226;-83
2023/03/09 07:29:29;;;;;;;13.23;8.13;;;;;;;;;;5013597;28;20214;-83
2023/03/09 07:31:57;;;;;;;4.67;4.13;;;;;;;;;;5014173;28;20195;-83
2023/03/09 07:34:25;;;;;;;5.90;5.30;;;;;;;;;;5013712;28;20350;-83
2023/03/09 07:36:54;;;;;;;5.90;5.43;;;;;;;;;;5014153;28;20233;-83
2023/03/09 07:39:22;;;;;;;7.90;6.43;;;;;;;;;;5013899;28;20278;-82
2023/03/09 07:41:52;;;;;;;6.07;5.10;;;;;;;;;;5013476;28;20206;-83
2023/03/09 07:44:20;;;;;;;9.97;6.27;;;;;;;;;;5013396;28;20261;-83
2023/03/09 07:46:49;;;;;;;1.17;1.17;;;;;;;;;;5014962;28;20296;-83
2023/03/09 07:49:18;;;;;;;3.43;2.73;;;;;;;;;;5013851;28;20207;-84
2023/03/09 07:51:46;;;;;;;5.30;4.57;;;;;;;;;;5013506;28;20203;-83
2023/03/09 07:54:15;;;;;;;8.10;5.40;;;;;;;;;;5014766;28;20278;-83
2023/03/09 07:56:47;;;;;;;6.43;5.80;;;;;;;;;;5018082;28;20243;-83
2023/03/09 07:59:17;;;;;;;4.93;3.80;;;;;;;;;;5018030;28;20210;-84
2023/03/09 08:01:45;;;;;;;8.43;6.30;;;;;;;;;;5017666;28;20229;-84
2023/03/09 08:04:16;;;;;;;8.00;6.03;;;;;;;;;;5017316;28;20243;-83
2023/03/09 08:06:45;;;;;;;10.33;8.20;;;;;;;;;;5017409;28;20199;-84
2023/03/09 08:09:15;;;;;;;4.63;4.23;;;;;;;;;;5017323;28;20217;-84
2023/03/09 08:11:44;;;;;;;12.73;9.67;;;;;;;;;;5017753;28;20302;-84
2023/03/09 08:14:12;;;;;;;12.90;8.40;;;;;;;;;;5017380;28;20258;-84
2023/03/09 08:16:42;;;;;;;8.03;6.40;;;;;;;;;;5017898;28;20207;-83
2023/03/09 08:19:11;;;;;;;10.80;6.77;;;;;;;;;;5017674;28;20196;-84
2023/03/09 08:21:40;;;;;;;4.90;4.50;;;;;;;;;;5018234;28;20241;-83
2023/03/09 08:24:08;;;;;;;7.37;4.97;;;;;;;;;;5018264;28;20192;-84
2023/03/09 08:26:37;;;;;;;5.70;4.87;;;;;;;;;;5018041;28;20243;-84
2023/03/09 08:29:05;;;;;;;6.50;4.63;;;;;;;;;;5017607;28;20285;-84
2023/03/09 08:31:35;;;;;;;3.10;2.43;;;;;;;;;;5017403;28;20204;-84
2023/03/09 08:34:05;;;;;;;7.10;5.57;;;;;;;;;;5017719;28;20254;-84
2023/03/09 08:36:33;;;;;;;10.47;8.33;;;;;;;;;;5017751;28;20273;-83
2023/03/09 08:39:02;;;;;;;9.20;6.00;;;;;;;;;;5017655;28;20298;-84
2023/03/09 08:41:30;;;;;;;6.37;5.10;;;;;;;;;;5017110;28;20273;-84
2023/03/09 08:44:00;;;;;;;4.67;4.27;;;;;;;;;;5017572;28;20220;-84
2023/03/09 08:46:28;;;;;;;11.23;7.63;;;;;;;;;;5017262;28;20208;-84
2023/03/09 08:48:57;;;;;;;7.43;6.07;;;;;;;;;;5017096;28;20209;-83
2023/03/09 08:51:28;;;;;;;4.30;2.87;;;;;;;;;;5016819;28;20232;-83
2023/03/09 08:53:56;;;;;;;9.70;7.43;;;;;;;;;;5016979;28;20215;-84
2023/03/09 08:56:25;;;;;;;9.10;6.70;;;;;;;;;;5016693;28;20309;-83
2023/03/09 08:58:53;;;;;;;8.13;6.57;;;;;;;;;;5016898;28;20199;-83
2023/03/09 09:01:22;;;;;;;8.40;6.17;;;;;;;;;;5016808;28;20306;-84
2023/03/09 09:03:50;;;;;;;8.63;6.93;;;;;;;;;;5016134;28;20485;-83
2023/03/09 09:06:18;;;;;;;9.43;6.87;;;;;;;;;;5015446;28;20207;-83
2023/03/09 09:08:48;;;;;;;4.67;3.83;;;;;;;;;;5016448;28;20204;-83
2023/03/09 09:11:18;;;;;;;4.50;3.63;;;;;;;;;;5016633;28;20214;-84
2023/03/09 09:13:47;;;;;;;10.00;6.27;;;;;;;;;;5016066;28;20228;-83
2023/03/09 09:16:16;;;;;;;9.47;7.20;;;;;;;;;;5016681;28;20239;-83
2023/03/09 09:18:44;;;;;;;7.80;5.87;;;;;;;;;;5017108;28;20203;-84
2023/03/09 09:21:14;;;;;;;5.27;3.47;;;;;;;;;;5017194;28;20196;-83
2023/03/09 09:23:43;;;;;;;9.00;6.67;;;;;;;;;;5016677;28;20196;-83
2023/03/09 09:26:14;;;;;;;6.03;3.63;;;;;;;;;;5016255;28;20200;-83
2023/03/09 09:28:45;;;;;;;5.80;5.13;;;;;;;;;;5016183;28;20192;-83
2023/03/09 09:31:16;;;;;;;8.10;6.47;;;;;;;;;;5015784;28;20290;-83
2023/03/09 09:33:45;;;;;;;8.80;5.83;;;;;;;;;;5015673;28;20223;-83
2023/03/09 09:36:15;;;;;;;8.10;5.70;;;;;;;;;;5016269;28;20212;-83
2023/03/09 09:38:43;;;;;;;10.67;6.57;;;;;;;;;;5016455;28;20298;-83
2023/03/09 09:41:16;;;;;;;8.57;5.77;;;;;;;;;;5016203;28;20281;-83
2023/03/09 09:43:46;;;;;;;5.43;3.60;;;;;;;;;;5016339;28;20196;-83
2023/03/09 09:46:16;;;;;;;4.93;4.00;;;;;;;;;;5016943;28;20256;-83
2023/03/09 09:48:46;;;;;;;6.40;2.93;;;;;;;;;;5016225;28;20200;-84
2023/03/09 09:51:48;;;;;;;2.67;2.47;;;;;;;;;;5015927;28;20363;-83
2023/03/09 09:54:23;;;;;;;5.67;3.87;;;;;;;;;;4954864;29;20243;-83
2023/03/09 09:56:54;;;;;;;6.67;4.90;;;;;;;;;;4954561;29;20206;-83
2023/03/09 09:59:29;;;;;;;9.13;6.27;;;;;;;;;;4986742;28;20204;-83
2023/03/09 10:02:00;;;;;;;4.37;3.93;;;;;;;;;;5015849;28;20245;-83
2023/03/09 10:04:30;;;;;;;7.43;5.03;;;;;;;;;;5015341;28;20247;-84
2023/03/09 10:07:02;;;;;;;6.63;4.63;;;;;;;;;;5015925;28;20204;-84
2023/03/09 10:09:32;;;;;;;2.53;2.33;;;;;;;;;;5015640;28;20200;-84
2023/03/09 10:12:07;;;;;;;6.77;4.13;;;;;;;;;;5015608;28;20290;-83
2023/03/09 10:14:37;;;;;;;3.00;2.70;;;;;;;;;;5015301;28;20229;-84
2023/03/09 10:17:08;;;;;;;5.70;4.60;;;;;;;;;;5014817;28;20294;-83
2023/03/09 10:19:38;;;;;;;2.67;2.07;;;;;;;;;;5014900;28;20192;-83
2023/03/09 10:22:08;;;;;;;4.30;4.00;;;;;;;;;;5015231;28;20200;-83
2023/03/09 10:24:40;;;;;;;9.53;7.97;;;;;;;;;;5015144;28;20196;-84
2023/03/09 10:27:18;;;;;;;8.80;6.77;;;;;;;;;;5014859;28;20223;-84
2023/03/09 10:29:52;;;;;;;6.20;5.00;;;;;;;;;;5015188;28;20200;-84
2023/03/09 10:32:39;;;;;;;9.00;7.50;;;;;;;;;;5015105;28;20207;-84
2023/03/09 10:35:13;;;;;;;10.17;7.00;;;;;;;;;;5015164;28;20226;-84
2023/03/09 10:37:42;;;;;;;6.83;5.87;;;;;;;;;;5015475;28;20234;-84
2023/03/09 10:40:17;;;;;;;5.97;5.40;;;;;;;;;;5014713;28;20216;-84
2023/03/09 10:42:47;;;;;;;10.60;8.17;;;;;;;;;;5014956;28;20211;-84
2023/03/09 10:45:26;;;;;;;5.07;4.57;;;;;;;;;;5015018;28;20204;-84
2023/03/09 10:47:56;;;;;;;12.13;8.03;;;;;;;;;;5014938;28;20207;-84
2023/03/09 10:50:26;;;;;;;6.80;5.50;;;;;;;;;;5014611;28;20294;-85
2023/03/09 10:52:54;;;;;;;7.73;6.17;;;;;;;;;;5014924;28;20209;-83
2023/03/09 10:55:34;;;;;;;13.63;6.87;;;;;;;;;;5015012;28;20219;-85
2023/03/09 10:58:14;;;;;;;6.43;5.10;;;;;;;;;;5014491;28;20238;-85
2023/03/09 11:01:03;;;;;;;9.73;6.63;;;;;;;;;;5014805;28;20199;-84
2023/03/09 11:03:33;;;;;;;5.37;4.93;;;;;;;;;;5011232;28;20302;-84
2023/03/09 11:06:10;;;;;;;14.63;6.90;;;;;;;;;;5014803;28;20228;-85
2023/03/09 11:08:40;;;;;;;9.60;5.57;;;;;;;;;;5015384;28;20254;-85
2023/03/09 11:11:28;;;;;;;7.73;6.20;;;;;;;;;;5015908;28;20218;-84
2023/03/09 11:13:58;;;;;;;6.53;5.73;;;;;;;;;;5016300;28;20231;-84
2023/03/09 11:16:28;;;;;;;6.63;5.73;;;;;;;;;;5015383;28;20207;-84
2023/03/09 11:19:07;;;;;;;6.17;4.07;;;;;;;;;;5015547;28;20299;-84
2023/03/09 11:21:36;;;;;;;10.10;7.47;;;;;;;;;;5015097;28;20294;-85
2023/03/09 11:24:04;;;;;;;12.57;9.17;;;;;;;;;;5014556;28;20539;-84
2023/03/09 11:26:47;;;;;;;9.50;7.47;;;;;;;;;;5014355;28;20522;-85
2023/03/09 11:29:22;;;;;;;6.77;5.43;;;;;;;;;;5014887;28;20451;-84
2023/03/09 11:31:51;;;;;;;5.57;4.77;;;;;;;;;;5018383;28;20301;-84
2023/03/09 11:34:23;;;;;;;6.33;5.50;;;;;;;;;;5018323;28;20199;-84
2023/03/09 11:36:55;;;;;;;8.87;6.33;;;;;;;;;;5018315;28;20198;-83
2023/03/09 11:39:27;;;;;;;9.93;5.70;;;;;;;;;;5018247;28;20199;-85
2023/03/09 11:41:56;;;;;;;4.70;4.23;;;;;;;;;;5018430;28;20200;-84
2023/03/09 11:44:28;;;;;;;9.03;6.63;;;;;;;;;;5018530;28;20206;-85
2023/03/09 11:46:58;;;;;;;5.57;4.40;;;;;;;;;;5018408;28;20243;-84
2023/03/09 11:49:28;;;;;;;8.07;4.73;;;;;;;;;;5019071;28;20294;-84
2023/03/09 11:51:59;;;;;;;8.87;6.60;;;;;;;;;;5019000;28;20196;-84
2023/03/09 11:54:29;;;;;;;11.73;8.30;;;;;;;;;;5018584;28;20214;-85
2023/03/09 11:57:00;;;;;;;10.60;7.40;;;;;;;;;;5017747;28;20223;-84
2023/03/09 11:59:31;;;;;;;9.23;6.97;;;;;;;;;;5017348;28;20399;-85
2023/03/09 12:02:01;;;;;;;5.47;4.97;;;;;;;;;;5017935;28;20219;-84
2023/03/09 12:04:29;;;;;;;9.83;8.70;;;;;;;;;;5018037;28;20281;-84
2023/03/09 12:07:00;;;;;;;12.87;7.90;;;;;;;;;;5017841;28;20294;-85
2023/03/09 12:09:31;;;;;;;4.63;3.03;;;;;;;;;;5018308;28;20241;-84
2023/03/09 12:12:02;;;;;;;7.53;5.33;;;;;;;;;;5019460;28;20215;-84
2023/03/09 12:14:36;;;;;;;7.40;5.60;;;;;;;;;;5018971;28;20207;-84
2023/03/09 12:17:07;;;;;;;9.40;7.03;;;;;;;;;;5018686;28;20211;-85
2023/03/09 12:19:36;;;;;;;8.73;7.20;;;;;;;;;;5018997;28;20200;-85
2023/03/09 12:22:06;;;;;;;14.00;8.00;;;;;;;;;;5018537;28;20195;-85
2023/03/09 12:24:39;;;;;;;3.10;2.80;;;;;;;;;;5018409;28;20295;-84
2023/03/09 12:27:19;;;;;;;14.00;9.80;;;;;;;;;;5018545;28;20399;-84
2023/03/09 12:29:49;;;;;;;11.83;8.10;;;;;;;;;;5018247;28;20196;-84
2023/03/09 12:32:33;;;;;;;10.60;7.80;;;;;;;;;;5017870;28;20204;-85
2023/03/09 12:35:03;;;;;;;13.70;7.97;;;;;;;;;;5017940;28;20223;-84
2023/03/09 12:37:42;;;;;;;11.40;8.60;;;;;;;;;;5017904;28;20200;-85
2023/03/09 12:40:24;;;;;;;14.47;10.60;;;;;;;;;;5017804;28;20242;-85
2023/03/09 12:42:53;;;;;;;12.53;9.23;;;;;;;;;;5018388;28;20257;-84
2023/03/09 12:45:29;;;;;;;11.40;7.57;;;;;;;;;;5017610;28;20290;-85
2023/03/09 12:47:59;;;;;;;8.93;7.63;;;;;;;;;;5018130;28;20210;-85
2023/03/09 12:50:32;;;;;;;16.67;11.80;;;;;;;;;;5017417;28;20238;-86
2023/03/09 12:53:08;;;;;;;11.17;6.37;;;;;;;;;;5018021;28;20219;-84
2023/03/09 12:55:47;;;;;;;10.83;6.93;;;;;;;;;;5020193;28;20219;-87
2023/03/09 12:58:36;;;;;;;9.50;7.13;;;;;;;;;;5022915;28;20203;-86
2023/03/09 13:01:07;;;;;;;15.07;10.37;;;;;;;;;;5019658;28;20200;-86
2023/03/09 13:03:42;;;;;;;9.77;8.63;;;;;;;;;;5025115;28;20206;-86
2023/03/09 13:06:24;;;;;;;8.13;6.63;;;;;;;;;;5024985;28;20251;-85
2023/03/09 13:08:54;;;;;;;13.67;11.33;;;;;;;;;;5026566;28;20203;-85
2023/03/09 13:11:34;;;;;;;10.37;7.70;;;;;;;;;;5027008;28;20203;-86
2023/03/09 13:14:04;;;;;;;7.07;5.40;;;;;;;;;;5027970;28;20216;-85
2023/03/09 13:16:51;;;;;;;9.67;7.73;;;;;;;;;;5026087;28;20408;-87
2023/03/09 13:19:43;;;;;;;12.30;8.87;;;;;;;;;;5017968;28;20200;-85
2023/03/09 13:22:16;;;;;;;11.67;9.70;;;;;;;;;;5015378;28;20246;-85
2023/03/09 13:24:44;;;;;;;4.83;4.40;;;;;;;;;;5015783;28;20226;-85
2023/03/09 13:27:16;;;;;;;10.10;7.87;;;;;;;;;;5015689;28;20215;-85
2023/03/09 13:29:46;;;;;;;11.83;8.67;;;;;;;;;;5015765;28;20243;-85
2023/03/09 13:32:23;;;;;;;10.67;7.87;;;;;;;;;;5015797;28;20199;-85
2023/03/09 13:34:53;;;;;;;11.67;8.93;;;;;;;;;;5015607;28;20203;-85
2023/03/09 13:37:23;;;;;;;7.23;5.77;;;;;;;;;;5015525;28;20220;-82
2023/03/09 13:39:59;;;;;;;11.27;7.83;;;;;;;;;;5015760;28;20250;-83
2023/03/09 13:42:28;;;;;;;2.97;2.77;;;;;;;;;;5015587;28;20227;-83
2023/03/09 13:44:57;;;;;;;13.50;10.23;;;;;;;;;;5015775;28;20222;-82
2023/03/09 13:47:27;;;;;;;8.87;6.73;;;;;;;;;;5015597;28;20191;-83
2023/03/09 13:49:58;;;;;;;11.63;7.03;;;;;;;;;;5015131;28;20206;-83
2023/03/09 13:52:27;;;;;;;15.00;10.50;;;;;;;;;;5016068;28;20212;-83
2023/03/09 13:54:57;;;;;;;9.13;4.70;;;;;;;;;;5027007;28;20207;-86
2023/03/09 13:57:32;;;;;;;7.47;6.47;;;;;;;;;;5024200;28;20235;-85
2023/03/09 14:00:02;;;;;;;13.27;9.03;;;;;;;;;;5016461;28;20205;-87
2023/03/09 14:02:32;;;;;;;17.40;12.03;;;;;;;;;;5007924;28;20215;-85
2023/03/09 14:05:08;;;;;;;11.00;8.37;;;;;;;;;;5005106;28;20236;-85
2023/03/09 14:07:57;;;;;;;11.30;7.83;;;;;;;;;;5006281;28;20208;-85
2023/03/09 14:10:27;;;;;;;11.13;8.17;;;;;;;;;;5004929;28;20265;-86
2023/03/09 14:12:56;;;;;;;14.10;9.40;;;;;;;;;;5005898;28;20211;-85
2023/03/09 14:15:25;;;;;;;13.07;10.63;;;;;;;;;;5005471;28;20204;-85
2023/03/09 14:17:55;;;;;;;6.97;4.60;;;;;;;;;;5003485;28;20294;-85
2023/03/09 14:20:25;;;;;;;11.50;9.70;;;;;;;;;;5006261;28;20234;-86
2023/03/09 14:22:54;;;;;;;15.80;10.60;;;;;;;;;;5015401;28;20217;-85
2023/03/09 14:25:32;;;;;;;18.30;10.70;;;;;;;;;;5028238;28;20222;-85
2023/03/09 14:28:01;;;;;;;15.23;10.20;;;;;;;;;;5031190;28;20254;-84
2023/03/09 14:30:40;;;;;;;16.03;11.27;;;;;;;;;;5000164;28;20230;-84
2023/03/09 14:33:23;;;;;;;16.77;9.73;;;;;;;;;;5003752;28;20211;-84
2023/03/09 14:36:05;;;;;;;15.37;10.07;;;;;;;;;;4994853;28;20200;-84
2023/03/09 14:38:34;;;;;;;10.73;9.23;;;;;;;;;;4995123;28;20219;-85
2023/03/09 14:41:03;;;;;;;11.60;8.93;;;;;;;;;;4998761;28;20239;-83
2023/03/09 14:43:35;;;;;;;10.27;7.83;;;;;;;;;;5017709;28;20294;-85
2023/03/09 14:46:17;;;;;;;14.60;10.97;;;;;;;;;;5000444;28;20299;-85
2023/03/09 14:48:48;;;;;;;15.30;11.60;;;;;;;;;;4994376;28;20212;-84
2023/03/09 14:51:22;;;;;;;10.80;8.67;;;;;;;;;;5005244;28;20198;-84
2023/03/09 14:53:51;;;;;;;15.40;12.00;;;;;;;;;;5013799;28;20297;-84
2023/03/09 14:56:20;;;;;;;16.40;9.67;;;;;;;;;;5008407;28;20318;-84
2023/03/09 14:58:48;;;;;;;15.13;10.13;;;;;;;;;;4999197;28;20525;-84